Airfield :
LOGIN :

Register | Disclaimer

   EN    FR    IT 

 










Legend :    VFR   Marginal VFR   IFR   Intensive IFR   Very Intensive IFR
Visi :
Ceiling :
>= 8 km
>= 3000ft
5 to 8 km
1000 to 3000 ft
1500m to 5 km
500 to 1000 ft
800 to 1500m
200 to 500 ft
< 800m
< 200 ft
Symbols :   Thunderstorms  Fog  Heavy snow  Heavy precipitations  Wind > 20 kt
SIGMETs :     Misc.  Thunderstorms  Icing  Turbulence  Mountain Waves  Volcanic Ashes







- Airport Elevation : 49 ft
- IATA code : GLZ


EHGR - Gilze-Rijen Airbase

CURRENT METAR :
  • 240526Z AUTO 05001KT 2100 BR FEW015CB OVC038 07/06 Q1006 YLO

EXPIRED METARs :
  • 240514Z AUTO VRB02KT 1800 -DZRA SCT015CB SCT031 BKN046 07/07 Q1005 YLO
  • 240506Z AUTO VRB01KT 4900 -RA BKN015CB SCT036 BKN048 07/07 Q1005 GRN
  • 240455Z AUTO 21001KT 6000 -RA BKN015CB OVC049 08/07 Q1006 WHT
  • 240425Z AUTO 21004KT 180V250 6000 SHRA BKN015CB OVC039 08/07 Q1006 REUP WHT
  • 240355Z AUTO 21003KT 190V250 7000 -RA BKN015CB BKN026 OVC030 08/07 Q1006 WHT
  • 240342Z AUTO 21004KT 180V240 8000 -SHRA SCT015CB BKN025 OVC032 08/07 Q1006 WHT
  • 240325Z AUTO 22003KT 190V250 9999 -RA FEW015CB SCT045 BKN049 08/07 Q1006 RERA REDZ BLU
  • 240305Z AUTO 22003KT 190V260 9999 -DZ SCT030 SCT042 OVC059 08/07 Q1006 BLU
  • 240255Z AUTO 25003KT 8000 DZ FEW015CB BKN038 OVC043 08/07 Q1006 BLU
  • 240240Z AUTO 24004KT 210V270 9000 -RA FEW038 BKN042 OVC047 08/07 Q1007 BLU

TAF TAF EHGR
Valid from the 23 at 18:00 until the 24 at 06:00 UTC


231737Z 2318/2406 23007KT CAVOK
BECMG 2323/2402 VRB03KT -RA OVC025
PROB30
TEMPO 2402/2406 25010G20KT 3000 SHRA TSRA FEW010 SCT017CB BKN022
No reported NOTAMs for that airfield.



MET'MAP, your aeronautical weather chart ! - Copyright ORBIFLY December 2007 - Disclaimer

ORBIFLY MET'MAP TEAM :

Programming & Development : Alexandra Zaïnal
Concept & Development : Baudouin d'Aumeries
Co-Development & Prog : Marc-Olivier Méhu
Technical & hardware support : Manuel Goepfert

Contact : metmap@orbifly.com




SOURCES & CREDITS :

   NOAA